createdAt,value
2022-11-14T00:01:32.196Z,5.90
2022-11-14T00:04:37.591Z,6.10
2022-11-14T00:07:43.468Z,6.47
2022-11-14T00:10:51.084Z,6.13
2022-11-14T00:13:56.873Z,6.30
2022-11-14T00:17:02.468Z,6.13
2022-11-14T00:20:10.871Z,6.50
2022-11-14T00:23:16.594Z,6.17
2022-11-14T00:26:22.771Z,6.83
2022-11-14T00:29:28.141Z,6.57
2022-11-14T00:32:33.591Z,6.77
2022-11-14T00:35:39.080Z,6.57
2022-11-14T00:38:44.240Z,6.47
2022-11-14T00:42:01.998Z,6.50
2022-11-14T00:45:08.159Z,6.57
2022-11-14T00:48:13.807Z,6.23
2022-11-14T00:51:19.123Z,6.27
2022-11-14T00:54:25.910Z,7.00
2022-11-14T00:57:32.127Z,6.63
2022-11-14T01:00:37.896Z,7.00
2022-11-14T01:03:46.575Z,9.50
2022-11-14T01:06:52.125Z,7.27
2022-11-14T01:09:57.658Z,7.20
2022-11-14T01:13:04.217Z,7.43
2022-11-14T01:16:10.355Z,8.43
2022-11-14T01:19:15.767Z,7.13
2022-11-14T01:22:20.972Z,7.97
2022-11-14T01:25:26.600Z,8.47
2022-11-14T01:28:32.633Z,7.03
2022-11-14T01:31:37.965Z,6.87
2022-11-14T01:34:43.686Z,7.73
2022-11-14T01:37:49.193Z,8.63
2022-11-14T01:40:54.372Z,7.80
2022-11-14T01:44:00.076Z,7.60
2022-11-14T01:47:06.099Z,7.70
2022-11-14T01:50:11.609Z,8.80
2022-11-14T01:53:17.114Z,7.90
2022-11-14T01:56:27.481Z,8.33
2022-11-14T01:59:37.473Z,8.33
2022-11-14T02:02:43.449Z,8.87
2022-11-14T02:05:50.278Z,10.20
2022-11-14T02:08:57.314Z,8.87
2022-11-14T02:12:05.463Z,9.00
2022-11-14T02:15:12.209Z,9.83
2022-11-14T02:18:17.634Z,11.17
2022-11-14T02:21:23.780Z,12.93
2022-11-14T02:24:29.442Z,13.33
2022-11-14T02:27:35.738Z,13.27
2022-11-14T02:30:41.223Z,12.60
2022-11-14T02:33:47.058Z,11.63
2022-11-14T02:36:53.594Z,13.57
2022-11-14T02:39:59.094Z,12.10
2022-11-14T02:43:05.058Z,12.57
2022-11-14T02:46:11.003Z,13.93
2022-11-14T02:49:16.355Z,12.87
2022-11-14T02:52:22.676Z,10.87
2022-11-14T02:55:28.403Z,15.30
2022-11-14T02:58:34.174Z,11.20
2022-11-14T03:01:39.901Z,10.93
2022-11-14T03:04:45.676Z,12.70
2022-11-14T03:07:53.935Z,12.40
2022-11-14T03:11:04.096Z,12.47
2022-11-14T03:14:09.498Z,11.93
2022-11-14T03:17:14.762Z,11.80
2022-11-14T03:20:20.911Z,14.77
2022-11-14T03:23:26.755Z,12.43
2022-11-14T03:26:31.847Z,13.93
2022-11-14T03:29:37.391Z,11.70
2022-11-14T03:32:42.612Z,11.87
2022-11-14T03:35:49.168Z,11.53
2022-11-14T03:38:55.624Z,13.33
2022-11-14T03:42:01.293Z,12.83
2022-11-14T03:45:07.104Z,13.60
2022-11-14T03:48:12.916Z,12.20
2022-11-14T03:51:18.498Z,14.63
2022-11-14T03:54:24.611Z,15.63
2022-11-14T03:57:30.229Z,13.30
2022-11-14T04:00:35.857Z,13.97
2022-11-14T04:03:41.165Z,11.47
2022-11-14T04:06:46.751Z,13.90
2022-11-14T04:09:53.154Z,13.20
2022-11-14T04:12:58.542Z,12.20
2022-11-14T04:16:04.409Z,12.10
2022-11-14T04:19:09.967Z,13.77
2022-11-14T04:22:15.265Z,13.60
2022-11-14T04:25:21.282Z,17.67
2022-11-14T04:28:26.518Z,16.70
2022-11-14T04:31:31.923Z,16.40
2022-11-14T04:34:38.120Z,15.60
2022-11-14T04:37:43.438Z,15.00
2022-11-14T04:40:50.231Z,15.37
2022-11-14T04:43:55.789Z,13.57
2022-11-14T04:47:00.938Z,16.93
2022-11-14T04:50:07.438Z,14.53
2022-11-14T04:53:12.643Z,18.03
2022-11-14T04:56:22.338Z,15.30
2022-11-14T04:59:27.926Z,15.13
2022-11-14T05:02:33.291Z,15.17
2022-11-14T05:05:41.967Z,15.93
2022-11-14T05:08:47.994Z,14.70
2022-11-14T05:11:54.060Z,16.27
2022-11-14T05:15:00.233Z,15.10
2022-11-14T05:18:05.781Z,17.70
2022-11-14T05:21:13.475Z,16.70
2022-11-14T05:24:19.104Z,14.20
2022-11-14T05:27:25.069Z,15.10
2022-11-14T05:30:30.335Z,18.20
2022-11-14T05:33:35.995Z,14.63
2022-11-14T05:36:41.388Z,16.07
2022-11-14T05:39:46.749Z,16.73
2022-11-14T05:42:58.949Z,17.70
2022-11-14T05:46:06.226Z,16.63
2022-11-14T05:49:11.545Z,16.37
2022-11-14T05:52:16.999Z,18.37
2022-11-14T05:55:25.056Z,21.53
2022-11-14T05:58:35.265Z,21.37
2022-11-14T06:01:40.593Z,20.57
2022-11-14T06:04:45.937Z,18.87
2022-11-14T06:07:55.785Z,17.50
2022-11-14T06:11:06.110Z,18.30
2022-11-14T06:14:12.081Z,14.87
2022-11-14T06:17:17.326Z,17.00
2022-11-14T06:20:23.453Z,17.67
2022-11-14T06:23:29.230Z,19.87
2022-11-14T06:26:34.685Z,20.07
2022-11-14T06:29:40.458Z,21.90
2022-11-14T06:32:45.753Z,24.07
2022-11-14T06:35:51.042Z,20.30
2022-11-14T06:38:56.417Z,20.97
2022-11-14T06:42:02.085Z,21.73
2022-11-14T06:45:09.206Z,17.87
2022-11-14T06:48:14.809Z,20.90
2022-11-14T06:51:20.254Z,20.73
2022-11-14T06:54:25.954Z,22.63
2022-11-14T06:57:31.630Z,22.13
2022-11-14T07:00:37.870Z,21.27
2022-11-14T07:03:44.050Z,22.97
2022-11-14T07:06:49.410Z,21.03
2022-11-14T07:09:55.770Z,21.53
2022-11-14T07:13:01.362Z,19.73
2022-11-14T07:16:07.814Z,20.50
2022-11-14T07:19:13.234Z,19.77
2022-11-14T07:22:19.019Z,20.00
2022-11-14T07:25:24.187Z,19.83
2022-11-14T07:28:31.396Z,20.13
2022-11-14T07:31:37.692Z,19.40
2022-11-14T07:34:43.166Z,17.27
2022-11-14T07:37:49.031Z,17.13
2022-11-14T07:40:59.527Z,20.10
2022-11-14T07:44:05.452Z,22.40
2022-11-14T07:47:11.480Z,23.83
2022-11-14T07:50:20.345Z,20.77
2022-11-14T07:53:25.964Z,24.43
2022-11-14T07:56:31.404Z,19.77
2022-11-14T07:59:36.930Z,20.23
2022-11-14T08:02:43.166Z,22.30
2022-11-14T08:05:48.579Z,25.03
2022-11-14T08:08:54.014Z,20.20
2022-11-14T08:11:59.889Z,21.73
2022-11-14T08:15:06.819Z,22.53
2022-11-14T08:18:12.655Z,19.63
2022-11-14T08:21:18.080Z,19.63
2022-11-14T08:24:23.572Z,20.67
2022-11-14T08:27:28.936Z,19.20
2022-11-14T08:30:34.519Z,23.33
2022-11-14T08:33:40.890Z,23.37
2022-11-14T08:36:46.571Z,24.13
2022-11-14T08:39:52.234Z,26.47
2022-11-14T08:43:01.405Z,23.30
2022-11-14T08:46:07.034Z,18.10
2022-11-14T08:49:12.732Z,16.87
2022-11-14T08:52:18.372Z,15.33
2022-11-14T08:55:23.906Z,20.20
2022-11-14T08:58:30.545Z,20.07
2022-11-14T09:01:36.589Z,16.63
2022-11-14T09:04:42.513Z,16.27
2022-11-14T09:07:47.959Z,14.77
2022-11-14T09:10:53.180Z,15.67
2022-11-14T09:14:00.556Z,14.80
2022-11-14T09:17:06.286Z,17.27
2022-11-14T09:20:12.818Z,17.93
2022-11-14T09:23:20.829Z,17.53
2022-11-14T09:26:26.137Z,16.83
2022-11-14T09:29:31.270Z,19.20
2022-11-14T09:32:36.650Z,17.20
2022-11-14T09:35:42.516Z,16.93
2022-11-14T09:38:48.088Z,19.70
2022-11-14T09:42:09.923Z,18.70
2022-11-14T09:45:18.606Z,24.03
2022-11-14T09:48:29.012Z,18.20
2022-11-14T09:51:44.635Z,19.77
2022-11-14T09:54:54.984Z,20.27
2022-11-14T09:58:01.757Z,21.07
2022-11-14T10:01:12.394Z,21.03
2022-11-14T10:04:23.547Z,24.90
2022-11-14T10:07:39.837Z,22.20
2022-11-14T10:10:51.542Z,18.70
2022-11-14T10:14:34.574Z,21.63
2022-11-14T10:17:51.334Z,25.17
2022-11-14T10:21:03.227Z,21.47
2022-11-14T10:24:23.682Z,20.40
2022-11-14T10:27:33.280Z,22.60
2022-11-14T10:30:44.243Z,22.20
2022-11-14T10:33:56.720Z,18.10
2022-11-14T10:37:09.494Z,19.60
2022-11-14T10:40:18.473Z,18.83
2022-11-14T10:43:27.849Z,21.77
2022-11-14T10:46:38.731Z,20.73
2022-11-14T10:49:46.558Z,20.50
2022-11-14T10:52:56.127Z,20.60
2022-11-14T10:56:04.695Z,18.80
2022-11-14T10:59:10.928Z,19.00
2022-11-14T11:02:16.302Z,18.67
2022-11-14T11:05:24.701Z,18.87
2022-11-14T11:08:48.588Z,19.50
2022-11-14T11:11:57.384Z,19.47
2022-11-14T11:15:15.456Z,18.30
2022-11-14T11:18:27.218Z,21.90
2022-11-14T11:21:47.723Z,19.00
2022-11-14T11:24:53.480Z,17.93
2022-11-14T11:28:06.135Z,14.43
2022-11-14T11:31:11.556Z,20.27
2022-11-14T11:34:21.869Z,14.77
2022-11-14T11:40:42.645Z,12.80
2022-11-14T11:43:56.886Z,16.07
2022-11-14T11:47:07.999Z,11.87
2022-11-14T11:50:16.382Z,13.53
2022-11-14T11:53:28.649Z,12.87
2022-11-14T11:56:35.905Z,12.73
2022-11-14T11:59:45.878Z,12.77
2022-11-14T12:02:53.318Z,12.97
2022-11-14T12:06:10.176Z,12.10
2022-11-14T12:09:22.122Z,12.10
2022-11-14T12:12:47.818Z,14.73
2022-11-14T12:16:11.662Z,12.43
2022-11-14T12:19:42.055Z,12.63
2022-11-14T12:23:35.544Z,12.87
2022-11-14T12:27:04.118Z,12.93
2022-11-14T12:30:13.952Z,13.57
2022-11-14T12:33:24.843Z,12.67
2022-11-14T12:36:32.920Z,14.60
2022-11-14T12:39:39.024Z,15.10
2022-11-14T12:42:46.709Z,13.07
2022-11-14T12:45:57.887Z,13.43
2022-11-14T12:49:36.619Z,10.53
2022-11-14T12:52:53.436Z,12.23
2022-11-14T12:56:33.950Z,11.13
2022-11-14T12:59:49.358Z,12.37
2022-11-14T13:03:15.778Z,14.33
2022-11-14T13:06:26.307Z,14.83
2022-11-14T13:09:36.095Z,11.77
2022-11-14T13:13:00.523Z,16.00
2022-11-14T13:16:39.552Z,12.10
2022-11-14T13:20:04.509Z,12.87
2022-11-14T13:23:43.142Z,15.57
2022-11-14T13:26:53.798Z,13.20
2022-11-14T13:30:01.812Z,12.10
2022-11-14T13:33:07.534Z,13.83
2022-11-14T13:36:26.422Z,12.87
2022-11-14T13:39:42.120Z,14.73
2022-11-14T13:42:59.044Z,14.10
2022-11-14T13:46:13.805Z,12.47
2022-11-14T13:49:37.769Z,12.03
2022-11-14T13:52:45.024Z,15.20
2022-11-14T13:55:59.261Z,13.77
2022-11-14T13:59:45.525Z,14.90
2022-11-14T14:03:15.827Z,15.17
2022-11-14T14:06:39.508Z,12.63
2022-11-14T14:09:53.507Z,12.57
2022-11-14T14:13:10.655Z,13.87
2022-11-14T14:16:24.758Z,15.00
2022-11-14T14:19:42.304Z,15.00
2022-11-14T14:22:55.809Z,14.90
2022-11-14T14:26:10.215Z,13.43
2022-11-14T14:29:23.433Z,19.10
2022-11-14T14:32:28.844Z,13.07
2022-11-14T14:35:40.699Z,17.10
2022-11-14T14:38:47.708Z,15.37
2022-11-14T14:41:56.733Z,18.00
2022-11-14T14:45:04.627Z,15.33
2022-11-14T14:48:13.453Z,17.37
2022-11-14T14:51:30.189Z,18.40
2022-11-14T14:54:35.819Z,17.93
2022-11-14T14:57:41.374Z,17.87
2022-11-14T15:00:52.470Z,17.47
2022-11-14T15:04:01.941Z,17.97
2022-11-14T15:07:19.406Z,17.70
2022-11-14T15:10:28.744Z,18.83
2022-11-14T15:13:35.644Z,20.93
2022-11-14T15:44:08.641Z,17.60
2022-11-14T15:47:38.118Z,18.03
2022-11-14T16:02:24.400Z,21.57
2022-11-14T16:05:30.837Z,20.80
2022-11-14T16:08:51.530Z,19.77
2022-11-14T16:11:57.104Z,17.43
2022-11-14T16:25:02.267Z,18.97
2022-11-14T16:28:34.035Z,19.43
2022-11-14T16:31:40.000Z,20.33
2022-11-14T16:34:45.498Z,18.43
2022-11-14T16:37:53.762Z,21.50
2022-11-14T16:40:59.755Z,18.20
2022-11-14T16:44:05.883Z,19.20
2022-11-14T16:47:13.823Z,18.93
2022-11-14T16:50:19.499Z,20.23
2022-11-14T16:53:25.031Z,21.83
2022-11-14T16:56:31.357Z,17.00
2022-11-14T16:59:36.871Z,16.97
2022-11-14T17:02:41.928Z,17.83
2022-11-14T17:05:49.363Z,18.93
2022-11-14T17:08:55.337Z,18.60
2022-11-14T17:12:01.428Z,17.17
2022-11-14T17:15:07.686Z,19.33
2022-11-14T17:18:13.225Z,20.17
2022-11-14T17:21:34.052Z,18.17
2022-11-14T17:24:39.926Z,18.57
2022-11-14T17:27:48.122Z,19.40
2022-11-14T17:30:53.638Z,17.97
2022-11-14T17:33:59.488Z,18.33
2022-11-14T17:37:04.902Z,17.23
2022-11-14T17:40:15.323Z,16.87
2022-11-14T17:43:23.798Z,19.03
2022-11-14T17:46:29.323Z,18.70
2022-11-14T17:49:34.466Z,16.63
2022-11-14T17:52:40.857Z,17.93
2022-11-14T17:55:46.242Z,18.20
2022-11-14T17:58:53.184Z,17.97
2022-11-14T18:01:59.148Z,14.77
2022-11-14T18:05:06.983Z,18.40
2022-11-14T18:08:12.875Z,17.90
2022-11-14T18:12:08.395Z,18.83
2022-11-14T18:15:14.652Z,17.10
2022-11-14T18:18:20.116Z,17.27
2022-11-14T18:21:26.017Z,16.77
2022-11-14T18:24:31.723Z,17.10
2022-11-14T18:27:37.424Z,18.10
2022-11-14T18:30:55.310Z,16.03
2022-11-14T18:34:01.895Z,17.60
2022-11-14T18:37:07.496Z,19.17
2022-11-14T18:40:16.581Z,17.73
2022-11-14T18:43:22.425Z,14.17
2022-11-14T18:46:31.923Z,15.50
2022-11-14T18:49:44.437Z,17.13
2022-11-14T18:52:49.896Z,15.80
2022-11-14T18:55:56.129Z,16.90
2022-11-14T18:59:01.565Z,18.23
2022-11-14T19:02:08.524Z,17.57
2022-11-14T19:05:39.338Z,17.87
2022-11-14T19:09:12.917Z,16.57
2022-11-14T19:12:46.172Z,18.70
2022-11-14T19:15:51.535Z,17.00
2022-11-14T19:19:48.914Z,19.23
2022-11-14T19:31:16.144Z,18.13
2022-11-14T19:34:50.141Z,19.27
2022-11-14T19:38:20.421Z,19.83
2022-11-14T19:41:51.467Z,17.70
2022-11-14T19:44:58.315Z,18.37
2022-11-14T19:54:12.460Z,16.40
2022-11-14T19:57:43.442Z,18.17
2022-11-14T20:05:35.670Z,16.27
2022-11-14T20:08:41.546Z,16.67
2022-11-14T20:17:51.666Z,17.77
2022-11-14T20:21:02.262Z,17.73
2022-11-14T20:30:13.687Z,17.97
2022-11-14T20:33:19.470Z,16.53
2022-11-14T20:36:31.996Z,17.00
2022-11-14T20:39:41.146Z,16.27
2022-11-14T20:42:47.454Z,15.70
2022-11-14T20:45:57.231Z,17.13
2022-11-14T20:49:03.494Z,15.07
2022-11-14T20:52:14.343Z,17.87
2022-11-14T20:55:20.176Z,15.50
2022-11-14T20:58:25.699Z,15.30
2022-11-14T21:01:43.758Z,16.37
2022-11-14T21:04:49.799Z,14.73
2022-11-14T21:07:55.990Z,13.07
2022-11-14T21:11:04.047Z,13.00
2022-11-14T21:14:10.687Z,13.27
2022-11-14T21:17:16.412Z,14.80
2022-11-14T21:20:22.097Z,15.60
2022-11-14T21:23:28.142Z,12.97
2022-11-14T21:26:36.927Z,12.93
2022-11-14T21:29:42.535Z,14.50
2022-11-14T21:32:47.830Z,13.20
2022-11-14T21:35:53.306Z,13.07
2022-11-14T21:38:59.534Z,11.43
2022-11-14T21:42:05.017Z,12.57
2022-11-14T21:45:10.899Z,12.63
2022-11-14T21:48:16.642Z,13.83
2022-11-14T21:51:24.055Z,14.83
2022-11-14T21:54:29.956Z,11.70
2022-11-14T21:57:35.716Z,12.73
2022-11-14T22:00:41.266Z,14.17
2022-11-14T22:04:04.705Z,12.00
2022-11-14T22:07:10.171Z,12.83
2022-11-14T22:10:16.851Z,13.73
2022-11-14T22:13:22.371Z,12.47
2022-11-14T22:16:27.727Z,12.07
2022-11-14T22:19:33.042Z,12.20
2022-11-14T22:22:38.588Z,13.80
2022-11-14T22:25:52.499Z,15.97
2022-11-14T22:28:57.897Z,13.53
2022-11-14T22:32:03.704Z,14.77
2022-11-14T22:35:09.303Z,13.97
2022-11-14T22:38:14.694Z,15.10
2022-11-14T22:41:22.998Z,13.87
2022-11-14T22:44:30.810Z,14.03
2022-11-14T22:47:36.391Z,12.23
2022-11-14T22:50:41.927Z,12.90
2022-11-14T22:53:49.194Z,13.47
2022-11-14T22:56:55.322Z,13.13
2022-11-14T23:00:00.952Z,13.73
2022-11-14T23:03:06.771Z,12.87
2022-11-14T23:06:15.110Z,12.93
2022-11-14T23:09:20.402Z,13.30
2022-11-14T23:12:26.409Z,14.20
2022-11-14T23:15:32.175Z,15.30
2022-11-14T23:18:38.472Z,14.47
2022-11-14T23:21:43.748Z,13.63
2022-11-14T23:24:49.062Z,12.87
2022-11-14T23:27:55.228Z,14.33
2022-11-14T23:31:01.585Z,12.50
2022-11-14T23:34:07.043Z,12.47
2022-11-14T23:37:12.587Z,13.20
2022-11-14T23:40:18.307Z,13.77
2022-11-14T23:43:24.202Z,13.60
2022-11-14T23:46:29.812Z,14.03
2022-11-14T23:49:35.536Z,14.00
2022-11-14T23:52:40.928Z,13.53
2022-11-14T23:55:51.958Z,12.03
2022-11-14T23:58:58.321Z,13.10
